sensor_id;sensor_type;location;lat;lon;timestamp;P1;durP1;ratioP1;P2;durP2;ratioP2
2544;SDS011;36212;48.838;9.142;2024-01-30T00:00:28;12.10;;;11.00;;
2544;SDS011;36212;48.838;9.142;2024-01-30T00:03:00;11.18;;;10.38;;
2544;SDS011;36212;48.838;9.142;2024-01-30T00:05:33;10.40;;;9.60;;
2544;SDS011;36212;48.838;9.142;2024-01-30T00:08:06;11.88;;;10.68;;
2544;SDS011;36212;48.838;9.142;2024-01-30T00:10:38;11.38;;;10.48;;
2544;SDS011;36212;48.838;9.142;2024-01-30T00:13:10;11.45;;;10.55;;
2544;SDS011;36212;48.838;9.142;2024-01-30T00:15:44;12.20;;;11.05;;
2544;SDS011;36212;48.838;9.142;2024-01-30T00:18:16;11.25;;;10.05;;
2544;SDS011;36212;48.838;9.142;2024-01-30T00:20:50;11.00;;;9.95;;
2544;SDS011;36212;48.838;9.142;2024-01-30T00:23:23;11.88;;;10.88;;
2544;SDS011;36212;48.838;9.142;2024-01-30T00:25:55;11.20;;;10.30;;
2544;SDS011;36212;48.838;9.142;2024-01-30T00:28:28;11.38;;;10.38;;
2544;SDS011;36212;48.838;9.142;2024-01-30T00:31:01;12.43;;;11.32;;
2544;SDS011;36212;48.838;9.142;2024-01-30T00:33:33;12.35;;;11.25;;
2544;SDS011;36212;48.838;9.142;2024-01-30T00:36:06;10.80;;;9.80;;
2544;SDS011;36212;48.838;9.142;2024-01-30T00:38:40;11.20;;;10.27;;
2544;SDS011;36212;48.838;9.142;2024-01-30T00:41:12;11.65;;;10.52;;
2544;SDS011;36212;48.838;9.142;2024-01-30T00:43:49;11.40;;;10.50;;
2544;SDS011;36212;48.838;9.142;2024-01-30T00:46:21;11.30;;;10.20;;
2544;SDS011;36212;48.838;9.142;2024-01-30T00:48:53;11.20;;;10.20;;
2544;SDS011;36212;48.838;9.142;2024-01-30T00:51:26;14.65;;;11.15;;
2544;SDS011;36212;48.838;9.142;2024-01-30T00:53:59;15.23;;;11.70;;
2544;SDS011;36212;48.838;9.142;2024-01-30T00:56:33;11.23;;;10.32;;
2544;SDS011;36212;48.838;9.142;2024-01-30T00:59:05;12.38;;;11.18;;
2544;SDS011;36212;48.838;9.142;2024-01-30T01:01:37;11.55;;;10.55;;
2544;SDS011;36212;48.838;9.142;2024-01-30T01:04:10;10.75;;;9.80;;
2544;SDS011;36212;48.838;9.142;2024-01-30T01:06:42;13.98;;;11.93;;
2544;SDS011;36212;48.838;9.142;2024-01-30T01:09:16;11.20;;;10.30;;
2544;SDS011;36212;48.838;9.142;2024-01-30T01:11:48;11.20;;;10.10;;
2544;SDS011;36212;48.838;9.142;2024-01-30T01:14:20;13.32;;;12.15;;
2544;SDS011;36212;48.838;9.142;2024-01-30T01:16:52;10.63;;;9.73;;
2544;SDS011;36212;48.838;9.142;2024-01-30T01:19:25;14.90;;;11.30;;
2544;SDS011;36212;48.838;9.142;2024-01-30T01:21:57;24.35;;;11.45;;
2544;SDS011;36212;48.838;9.142;2024-01-30T01:24:33;12.20;;;10.85;;
2544;SDS011;36212;48.838;9.142;2024-01-30T01:27:06;11.50;;;10.48;;
2544;SDS011;36212;48.838;9.142;2024-01-30T01:29:38;12.45;;;11.35;;
2544;SDS011;36212;48.838;9.142;2024-01-30T01:32:10;12.63;;;11.43;;
2544;SDS011;36212;48.838;9.142;2024-01-30T01:34:43;12.52;;;11.50;;
2544;SDS011;36212;48.838;9.142;2024-01-30T01:37:15;13.85;;;11.70;;
2544;SDS011;36212;48.838;9.142;2024-01-30T01:39:48;12.68;;;11.50;;
2544;SDS011;36212;48.838;9.142;2024-01-30T01:42:20;12.30;;;11.30;;
2544;SDS011;36212;48.838;9.142;2024-01-30T01:44:52;12.63;;;11.52;;
2544;SDS011;36212;48.838;9.142;2024-01-30T01:47:25;12.90;;;11.70;;
2544;SDS011;36212;48.838;9.142;2024-01-30T01:49:57;12.82;;;11.57;;
2544;SDS011;36212;48.838;9.142;2024-01-30T01:52:29;11.93;;;10.85;;
2544;SDS011;36212;48.838;9.142;2024-01-30T01:55:02;13.13;;;11.93;;
2544;SDS011;36212;48.838;9.142;2024-01-30T01:57:35;15.98;;;11.88;;
2544;SDS011;36212;48.838;9.142;2024-01-30T02:00:08;11.98;;;10.80;;
2544;SDS011;36212;48.838;9.142;2024-01-30T02:02:42;12.75;;;11.25;;
2544;SDS011;36212;48.838;9.142;2024-01-30T02:05:16;13.32;;;12.15;;
2544;SDS011;36212;48.838;9.142;2024-01-30T02:07:48;12.73;;;11.73;;
2544;SDS011;36212;48.838;9.142;2024-01-30T02:10:22;13.73;;;12.32;;
2544;SDS011;36212;48.838;9.142;2024-01-30T02:12:54;13.38;;;12.07;;
2544;SDS011;36212;48.838;9.142;2024-01-30T02:15:26;13.50;;;12.20;;
2544;SDS011;36212;48.838;9.142;2024-01-30T02:17:59;12.93;;;11.73;;
2544;SDS011;36212;48.838;9.142;2024-01-30T02:20:32;16.42;;;12.38;;
2544;SDS011;36212;48.838;9.142;2024-01-30T02:23:07;14.02;;;11.30;;
2544;SDS011;36212;48.838;9.142;2024-01-30T02:25:42;13.10;;;11.90;;
2544;SDS011;36212;48.838;9.142;2024-01-30T02:28:18;12.30;;;11.10;;
2544;SDS011;36212;48.838;9.142;2024-01-30T02:30:51;13.57;;;11.77;;
2544;SDS011;36212;48.838;9.142;2024-01-30T02:33:23;11.30;;;10.20;;
2544;SDS011;36212;48.838;9.142;2024-01-30T02:35:56;11.88;;;10.77;;
2544;SDS011;36212;48.838;9.142;2024-01-30T02:38:28;13.80;;;12.48;;
2544;SDS011;36212;48.838;9.142;2024-01-30T02:41:00;12.43;;;11.23;;
2544;SDS011;36212;48.838;9.142;2024-01-30T02:43:32;13.55;;;12.23;;
2544;SDS011;36212;48.838;9.142;2024-01-30T02:46:04;14.45;;;12.60;;
2544;SDS011;36212;48.838;9.142;2024-01-30T02:48:37;13.57;;;12.27;;
2544;SDS011;36212;48.838;9.142;2024-01-30T02:51:10;13.55;;;12.25;;
2544;SDS011;36212;48.838;9.142;2024-01-30T02:53:43;14.65;;;13.32;;
2544;SDS011;36212;48.838;9.142;2024-01-30T02:56:15;13.57;;;12.38;;
2544;SDS011;36212;48.838;9.142;2024-01-30T02:58:47;13.18;;;11.98;;
2544;SDS011;36212;48.838;9.142;2024-01-30T03:01:20;16.70;;;12.70;;
2544;SDS011;36212;48.838;9.142;2024-01-30T03:03:54;15.27;;;13.63;;
2544;SDS011;36212;48.838;9.142;2024-01-30T03:06:27;15.48;;;13.70;;
2544;SDS011;36212;48.838;9.142;2024-01-30T03:08:59;12.68;;;11.50;;
2544;SDS011;36212;48.838;9.142;2024-01-30T03:11:31;16.35;;;12.30;;
2544;SDS011;36212;48.838;9.142;2024-01-30T03:14:03;15.93;;;14.10;;
2544;SDS011;36212;48.838;9.142;2024-01-30T03:16:36;13.07;;;11.88;;
2544;SDS011;36212;48.838;9.142;2024-01-30T03:19:09;15.45;;;13.48;;
2544;SDS011;36212;48.838;9.142;2024-01-30T03:21:42;13.43;;;12.02;;
2544;SDS011;36212;48.838;9.142;2024-01-30T03:24:14;13.95;;;12.75;;
2544;SDS011;36212;48.838;9.142;2024-01-30T03:26:47;14.18;;;12.75;;
2544;SDS011;36212;48.838;9.142;2024-01-30T03:29:19;13.57;;;12.23;;
2544;SDS011;36212;48.838;9.142;2024-01-30T03:31:52;14.20;;;12.90;;
2544;SDS011;36212;48.838;9.142;2024-01-30T03:34:24;13.77;;;12.38;;
2544;SDS011;36212;48.838;9.142;2024-01-30T03:36:56;13.50;;;12.10;;
2544;SDS011;36212;48.838;9.142;2024-01-30T03:39:30;14.48;;;13.18;;
2544;SDS011;36212;48.838;9.142;2024-01-30T03:42:02;13.40;;;12.15;;
2544;SDS011;36212;48.838;9.142;2024-01-30T03:44:35;14.18;;;12.07;;
2544;SDS011;36212;48.838;9.142;2024-01-30T03:47:07;12.73;;;11.73;;
2544;SDS011;36212;48.838;9.142;2024-01-30T03:49:39;12.82;;;11.73;;
2544;SDS011;36212;48.838;9.142;2024-01-30T03:52:12;14.65;;;13.35;;
2544;SDS011;36212;48.838;9.142;2024-01-30T03:54:44;13.98;;;12.65;;
2544;SDS011;36212;48.838;9.142;2024-01-30T03:57:16;14.00;;;12.55;;
2544;SDS011;36212;48.838;9.142;2024-01-30T03:59:49;14.05;;;12.77;;
2544;SDS011;36212;48.838;9.142;2024-01-30T04:02:21;15.48;;;13.85;;
2544;SDS011;36212;48.838;9.142;2024-01-30T04:04:53;13.52;;;12.32;;
2544;SDS011;36212;48.838;9.142;2024-01-30T04:07:26;14.50;;;13.15;;
2544;SDS011;36212;48.838;9.142;2024-01-30T04:09:59;14.60;;;13.50;;
2544;SDS011;36212;48.838;9.142;2024-01-30T04:12:31;14.57;;;13.07;;
2544;SDS011;36212;48.838;9.142;2024-01-30T04:15:04;14.48;;;13.20;;
2544;SDS011;36212;48.838;9.142;2024-01-30T04:17:36;13.70;;;12.30;;
2544;SDS011;36212;48.838;9.142;2024-01-30T04:20:13;13.73;;;11.98;;
2544;SDS011;36212;48.838;9.142;2024-01-30T04:22:47;12.48;;;11.30;;
2544;SDS011;36212;48.838;9.142;2024-01-30T04:25:19;13.90;;;12.63;;
2544;SDS011;36212;48.838;9.142;2024-01-30T04:27:52;15.07;;;13.75;;
2544;SDS011;36212;48.838;9.142;2024-01-30T04:30:24;17.67;;;12.00;;
2544;SDS011;36212;48.838;9.142;2024-01-30T04:32:56;14.65;;;12.85;;
2544;SDS011;36212;48.838;9.142;2024-01-30T04:35:29;12.90;;;11.80;;
2544;SDS011;36212;48.838;9.142;2024-01-30T04:38:01;14.40;;;13.15;;
2544;SDS011;36212;48.838;9.142;2024-01-30T04:40:33;15.52;;;13.93;;
2544;SDS011;36212;48.838;9.142;2024-01-30T04:43:06;14.27;;;12.90;;
2544;SDS011;36212;48.838;9.142;2024-01-30T04:45:38;14.18;;;12.80;;
2544;SDS011;36212;48.838;9.142;2024-01-30T04:48:10;16.33;;;14.63;;
2544;SDS011;36212;48.838;9.142;2024-01-30T04:50:43;15.20;;;13.55;;
2544;SDS011;36212;48.838;9.142;2024-01-30T04:53:15;14.15;;;12.95;;
2544;SDS011;36212;48.838;9.142;2024-01-30T04:55:48;14.23;;;12.18;;
2544;SDS011;36212;48.838;9.142;2024-01-30T04:58:20;16.45;;;12.73;;
2544;SDS011;36212;48.838;9.142;2024-01-30T05:00:53;15.27;;;13.10;;
2544;SDS011;36212;48.838;9.142;2024-01-30T05:03:25;14.75;;;12.80;;
2544;SDS011;36212;48.838;9.142;2024-01-30T05:05:58;14.80;;;13.30;;
2544;SDS011;36212;48.838;9.142;2024-01-30T05:08:30;14.43;;;12.77;;
2544;SDS011;36212;48.838;9.142;2024-01-30T05:11:05;15.48;;;14.18;;
2544;SDS011;36212;48.838;9.142;2024-01-30T05:13:37;15.63;;;13.13;;
2544;SDS011;36212;48.838;9.142;2024-01-30T05:16:09;14.57;;;11.80;;
2544;SDS011;36212;48.838;9.142;2024-01-30T05:18:42;12.90;;;11.70;;
2544;SDS011;36212;48.838;9.142;2024-01-30T05:21:15;13.18;;;12.07;;
2544;SDS011;36212;48.838;9.142;2024-01-30T05:23:47;15.65;;;11.20;;
2544;SDS011;36212;48.838;9.142;2024-01-30T05:26:19;12.30;;;11.20;;
2544;SDS011;36212;48.838;9.142;2024-01-30T05:28:53;17.33;;;12.38;;
2544;SDS011;36212;48.838;9.142;2024-01-30T05:31:27;12.45;;;11.40;;
2544;SDS011;36212;48.838;9.142;2024-01-30T05:33:59;12.13;;;10.77;;
2544;SDS011;36212;48.838;9.142;2024-01-30T05:36:32;13.32;;;12.02;;
2544;SDS011;36212;48.838;9.142;2024-01-30T05:39:05;13.13;;;11.73;;
2544;SDS011;36212;48.838;9.142;2024-01-30T05:41:40;16.13;;;12.02;;
2544;SDS011;36212;48.838;9.142;2024-01-30T05:44:12;13.77;;;12.48;;
2544;SDS011;36212;48.838;9.142;2024-01-30T05:46:45;15.30;;;13.75;;
2544;SDS011;36212;48.838;9.142;2024-01-30T05:49:17;14.05;;;12.65;;
2544;SDS011;36212;48.838;9.142;2024-01-30T05:51:50;12.90;;;11.70;;
2544;SDS011;36212;48.838;9.142;2024-01-30T05:54:22;13.20;;;12.02;;
2544;SDS011;36212;48.838;9.142;2024-01-30T05:56:54;12.90;;;11.80;;
2544;SDS011;36212;48.838;9.142;2024-01-30T05:59:26;13.88;;;12.52;;
2544;SDS011;36212;48.838;9.142;2024-01-30T06:01:59;13.02;;;11.70;;
2544;SDS011;36212;48.838;9.142;2024-01-30T06:04:31;13.65;;;12.25;;
2544;SDS011;36212;48.838;9.142;2024-01-30T06:07:04;14.52;;;13.05;;
2544;SDS011;36212;48.838;9.142;2024-01-30T06:09:38;12.55;;;11.35;;
2544;SDS011;36212;48.838;9.142;2024-01-30T06:12:11;13.45;;;12.10;;
2544;SDS011;36212;48.838;9.142;2024-01-30T06:14:44;12.48;;;11.23;;
2544;SDS011;36212;48.838;9.142;2024-01-30T06:17:18;13.65;;;12.27;;
2544;SDS011;36212;48.838;9.142;2024-01-30T06:19:50;11.35;;;10.45;;
2544;SDS011;36212;48.838;9.142;2024-01-30T06:22:23;12.43;;;11.25;;
2544;SDS011;36212;48.838;9.142;2024-01-30T06:24:55;13.02;;;11.75;;
2544;SDS011;36212;48.838;9.142;2024-01-30T06:27:27;12.73;;;11.60;;
2544;SDS011;36212;48.838;9.142;2024-01-30T06:30:00;14.38;;;12.85;;
2544;SDS011;36212;48.838;9.142;2024-01-30T06:32:35;13.80;;;12.35;;
2544;SDS011;36212;48.838;9.142;2024-01-30T06:35:07;13.77;;;12.48;;
2544;SDS011;36212;48.838;9.142;2024-01-30T06:37:40;13.45;;;12.45;;
2544;SDS011;36212;48.838;9.142;2024-01-30T06:40:13;13.40;;;12.00;;
2544;SDS011;36212;48.838;9.142;2024-01-30T06:42:45;13.60;;;12.20;;
2544;SDS011;36212;48.838;9.142;2024-01-30T06:45:17;14.05;;;12.73;;
2544;SDS011;36212;48.838;9.142;2024-01-30T06:47:50;14.25;;;13.02;;
2544;SDS011;36212;48.838;9.142;2024-01-30T06:50:22;14.48;;;12.93;;
2544;SDS011;36212;48.838;9.142;2024-01-30T06:52:54;13.93;;;12.32;;
2544;SDS011;36212;48.838;9.142;2024-01-30T06:55:27;12.98;;;11.77;;
2544;SDS011;36212;48.838;9.142;2024-01-30T06:57:59;11.07;;;10.18;;
2544;SDS011;36212;48.838;9.142;2024-01-30T07:00:32;12.55;;;11.27;;
2544;SDS011;36212;48.838;9.142;2024-01-30T07:03:04;11.70;;;10.60;;
2544;SDS011;36212;48.838;9.142;2024-01-30T07:05:36;15.20;;;13.70;;
2544;SDS011;36212;48.838;9.142;2024-01-30T07:08:08;11.13;;;10.07;;
2544;SDS011;36212;48.838;9.142;2024-01-30T07:10:41;11.38;;;10.27;;
2544;SDS011;36212;48.838;9.142;2024-01-30T07:13:13;12.50;;;11.20;;
2544;SDS011;36212;48.838;9.142;2024-01-30T07:15:48;14.27;;;12.77;;
2544;SDS011;36212;48.838;9.142;2024-01-30T07:18:20;12.55;;;11.45;;
2544;SDS011;36212;48.838;9.142;2024-01-30T07:20:52;13.30;;;11.32;;
2544;SDS011;36212;48.838;9.142;2024-01-30T07:23:25;12.93;;;11.73;;
2544;SDS011;36212;48.838;9.142;2024-01-30T07:25:59;12.75;;;11.65;;
2544;SDS011;36212;48.838;9.142;2024-01-30T07:28:32;13.38;;;11.93;;
2544;SDS011;36212;48.838;9.142;2024-01-30T07:31:05;15.10;;;12.30;;
2544;SDS011;36212;48.838;9.142;2024-01-30T07:33:38;17.25;;;13.82;;
2544;SDS011;36212;48.838;9.142;2024-01-30T07:36:10;14.00;;;12.48;;
2544;SDS011;36212;48.838;9.142;2024-01-30T07:38:42;14.55;;;13.05;;
2544;SDS011;36212;48.838;9.142;2024-01-30T07:41:15;13.88;;;12.48;;
2544;SDS011;36212;48.838;9.142;2024-01-30T07:43:47;15.13;;;12.70;;
2544;SDS011;36212;48.838;9.142;2024-01-30T07:46:19;14.48;;;12.98;;
2544;SDS011;36212;48.838;9.142;2024-01-30T07:48:52;13.77;;;12.38;;
2544;SDS011;36212;48.838;9.142;2024-01-30T07:51:27;14.55;;;13.05;;
2544;SDS011;36212;48.838;9.142;2024-01-30T07:54:02;14.50;;;12.77;;
2544;SDS011;36212;48.838;9.142;2024-01-30T07:56:36;14.68;;;13.18;;
2544;SDS011;36212;48.838;9.142;2024-01-30T07:59:11;14.35;;;13.05;;
2544;SDS011;36212;48.838;9.142;2024-01-30T08:01:44;15.45;;;13.10;;
2544;SDS011;36212;48.838;9.142;2024-01-30T08:04:16;13.70;;;12.30;;
2544;SDS011;36212;48.838;9.142;2024-01-30T08:06:49;14.50;;;13.00;;
2544;SDS011;36212;48.838;9.142;2024-01-30T08:09:22;14.40;;;13.10;;
2544;SDS011;36212;48.838;9.142;2024-01-30T08:11:54;15.15;;;12.73;;
2544;SDS011;36212;48.838;9.142;2024-01-30T08:14:26;14.70;;;13.25;;
2544;SDS011;36212;48.838;9.142;2024-01-30T08:16:59;15.35;;;13.68;;
2544;SDS011;36212;48.838;9.142;2024-01-30T08:19:32;15.45;;;12.55;;
2544;SDS011;36212;48.838;9.142;2024-01-30T08:22:05;14.82;;;12.90;;
2544;SDS011;36212;48.838;9.142;2024-01-30T08:24:37;14.73;;;13.25;;
2544;SDS011;36212;48.838;9.142;2024-01-30T08:27:12;13.68;;;12.05;;
2544;SDS011;36212;48.838;9.142;2024-01-30T08:29:44;14.35;;;13.02;;
2544;SDS011;36212;48.838;9.142;2024-01-30T08:32:17;15.55;;;12.88;;
2544;SDS011;36212;48.838;9.142;2024-01-30T08:34:49;14.60;;;12.75;;
2544;SDS011;36212;48.838;9.142;2024-01-30T08:37:21;16.40;;;12.55;;
2544;SDS011;36212;48.838;9.142;2024-01-30T08:39:54;17.63;;;11.90;;
2544;SDS011;36212;48.838;9.142;2024-01-30T08:42:27;14.38;;;12.93;;
2544;SDS011;36212;48.838;9.142;2024-01-30T08:44:59;12.38;;;11.20;;
2544;SDS011;36212;48.838;9.142;2024-01-30T08:47:32;15.10;;;12.02;;
2544;SDS011;36212;48.838;9.142;2024-01-30T08:50:05;14.65;;;11.43;;
2544;SDS011;36212;48.838;9.142;2024-01-30T08:52:38;14.20;;;12.75;;
2544;SDS011;36212;48.838;9.142;2024-01-30T08:55:11;14.73;;;11.75;;
2544;SDS011;36212;48.838;9.142;2024-01-30T08:57:43;12.77;;;11.57;;
2544;SDS011;36212;48.838;9.142;2024-01-30T09:00:16;13.38;;;12.02;;
2544;SDS011;36212;48.838;9.142;2024-01-30T09:02:48;15.38;;;12.90;;
2544;SDS011;36212;48.838;9.142;2024-01-30T09:05:21;14.50;;;13.00;;
2544;SDS011;36212;48.838;9.142;2024-01-30T09:07:54;13.73;;;12.15;;
2544;SDS011;36212;48.838;9.142;2024-01-30T09:10:26;13.18;;;11.88;;
2544;SDS011;36212;48.838;9.142;2024-01-30T09:12:59;13.57;;;12.25;;
2544;SDS011;36212;48.838;9.142;2024-01-30T09:15:32;13.57;;;11.63;;
2544;SDS011;36212;48.838;9.142;2024-01-30T09:18:04;13.00;;;11.85;;
2544;SDS011;36212;48.838;9.142;2024-01-30T09:20:37;16.75;;;12.23;;
2544;SDS011;36212;48.838;9.142;2024-01-30T09:23:09;15.55;;;12.32;;
2544;SDS011;36212;48.838;9.142;2024-01-30T09:25:42;16.27;;;11.50;;
2544;SDS011;36212;48.838;9.142;2024-01-30T09:28:17;15.45;;;13.95;;
2544;SDS011;36212;48.838;9.142;2024-01-30T09:30:49;13.98;;;12.48;;
2544;SDS011;36212;48.838;9.142;2024-01-30T09:33:22;14.65;;;12.00;;
2544;SDS011;36212;48.838;9.142;2024-01-30T09:35:54;15.15;;;13.55;;
2544;SDS011;36212;48.838;9.142;2024-01-30T09:38:27;14.02;;;12.63;;
2544;SDS011;36212;48.838;9.142;2024-01-30T09:41:00;13.32;;;12.02;;
2544;SDS011;36212;48.838;9.142;2024-01-30T09:43:39;15.98;;;11.70;;
2544;SDS011;36212;48.838;9.142;2024-01-30T09:46:17;13.35;;;12.00;;
2544;SDS011;36212;48.838;9.142;2024-01-30T09:48:56;14.23;;;12.95;;
2544;SDS011;36212;48.838;9.142;2024-01-30T09:51:31;13.65;;;11.60;;
2544;SDS011;36212;48.838;9.142;2024-01-30T09:54:06;13.25;;;11.85;;
2544;SDS011;36212;48.838;9.142;2024-01-30T09:56:43;13.27;;;11.93;;
2544;SDS011;36212;48.838;9.142;2024-01-30T09:59:17;13.30;;;12.23;;
2544;SDS011;36212;48.838;9.142;2024-01-30T10:01:50;21.08;;;12.52;;
2544;SDS011;36212;48.838;9.142;2024-01-30T10:04:23;14.15;;;12.15;;
2544;SDS011;36212;48.838;9.142;2024-01-30T10:06:56;13.63;;;12.15;;
2544;SDS011;36212;48.838;9.142;2024-01-30T10:09:32;12.95;;;11.85;;
2544;SDS011;36212;48.838;9.142;2024-01-30T10:12:07;13.07;;;11.75;;
2544;SDS011;36212;48.838;9.142;2024-01-30T10:14:41;14.95;;;12.73;;
2544;SDS011;36212;48.838;9.142;2024-01-30T10:17:14;13.98;;;12.68;;
2544;SDS011;36212;48.838;9.142;2024-01-30T10:19:59;13.80;;;12.50;;
2544;SDS011;36212;48.838;9.142;2024-01-30T10:22:35;15.40;;;13.75;;
2544;SDS011;36212;48.838;9.142;2024-01-30T10:25:07;15.57;;;12.82;;
2544;SDS011;36212;48.838;9.142;2024-01-30T10:27:40;15.63;;;14.10;;
2544;SDS011;36212;48.838;9.142;2024-01-30T10:30:13;14.02;;;12.57;;
2544;SDS011;36212;48.838;9.142;2024-01-30T10:32:45;15.77;;;13.13;;
2544;SDS011;36212;48.838;9.142;2024-01-30T10:35:18;14.20;;;12.70;;
2544;SDS011;36212;48.838;9.142;2024-01-30T10:37:51;14.07;;;12.63;;
2544;SDS011;36212;48.838;9.142;2024-01-30T10:40:29;14.35;;;12.95;;
2544;SDS011;36212;48.838;9.142;2024-01-30T10:43:06;15.20;;;13.90;;
2544;SDS011;36212;48.838;9.142;2024-01-30T10:45:45;14.57;;;13.38;;
2544;SDS011;36212;48.838;9.142;2024-01-30T10:48:24;15.35;;;13.80;;
2544;SDS011;36212;48.838;9.142;2024-01-30T10:51:02;21.45;;;14.95;;
2544;SDS011;36212;48.838;9.142;2024-01-30T10:53:36;18.45;;;15.02;;
2544;SDS011;36212;48.838;9.142;2024-01-30T10:56:09;15.40;;;13.90;;
2544;SDS011;36212;48.838;9.142;2024-01-30T10:58:43;14.80;;;13.38;;
2544;SDS011;36212;48.838;9.142;2024-01-30T11:01:17;14.85;;;13.35;;
2544;SDS011;36212;48.838;9.142;2024-01-30T11:03:55;15.48;;;13.13;;
2544;SDS011;36212;48.838;9.142;2024-01-30T11:06:29;15.18;;;12.90;;
2544;SDS011;36212;48.838;9.142;2024-01-30T11:09:11;15.50;;;14.02;;
2544;SDS011;36212;48.838;9.142;2024-01-30T11:14:33;17.83;;;16.23;;
2544;SDS011;36212;48.838;9.142;2024-01-30T11:17:07;16.98;;;15.40;;
2544;SDS011;36212;48.838;9.142;2024-01-30T11:19:44;18.17;;;15.80;;
2544;SDS011;36212;48.838;9.142;2024-01-30T11:22:21;15.18;;;13.57;;
2544;SDS011;36212;48.838;9.142;2024-01-30T11:24:55;17.48;;;14.02;;
2544;SDS011;36212;48.838;9.142;2024-01-30T11:27:33;16.60;;;15.00;;
2544;SDS011;36212;48.838;9.142;2024-01-30T11:30:06;20.05;;;16.63;;
2544;SDS011;36212;48.838;9.142;2024-01-30T11:32:40;17.42;;;14.25;;
2544;SDS011;36212;48.838;9.142;2024-01-30T11:35:12;17.92;;;16.02;;
2544;SDS011;36212;48.838;9.142;2024-01-30T11:37:46;17.38;;;14.23;;
2544;SDS011;36212;48.838;9.142;2024-01-30T11:40:21;18.17;;;15.68;;
2544;SDS011;36212;48.838;9.142;2024-01-30T11:42:59;17.98;;;15.75;;
2544;SDS011;36212;48.838;9.142;2024-01-30T11:45:34;19.55;;;16.40;;
2544;SDS011;36212;48.838;9.142;2024-01-30T11:48:08;18.45;;;14.25;;
2544;SDS011;36212;48.838;9.142;2024-01-30T11:50:43;17.70;;;16.00;;
2544;SDS011;36212;48.838;9.142;2024-01-30T11:53:16;20.08;;;15.68;;
2544;SDS011;36212;48.838;9.142;2024-01-30T11:55:52;16.50;;;15.10;;
2544;SDS011;36212;48.838;9.142;2024-01-30T11:58:25;17.20;;;13.98;;
2544;SDS011;36212;48.838;9.142;2024-01-30T12:00:58;16.40;;;14.70;;
2544;SDS011;36212;48.838;9.142;2024-01-30T12:03:32;15.82;;;14.27;;
2544;SDS011;36212;48.838;9.142;2024-01-30T12:06:05;15.75;;;14.15;;
2544;SDS011;36212;48.838;9.142;2024-01-30T12:08:38;14.98;;;13.45;;
2544;SDS011;36212;48.838;9.142;2024-01-30T12:11:11;16.92;;;13.98;;
2544;SDS011;36212;48.838;9.142;2024-01-30T12:13:44;16.48;;;14.88;;
2544;SDS011;36212;48.838;9.142;2024-01-30T12:16:18;15.32;;;13.93;;
2544;SDS011;36212;48.838;9.142;2024-01-30T12:18:58;17.10;;;14.18;;
2544;SDS011;36212;48.838;9.142;2024-01-30T12:21:33;17.95;;;13.35;;
2544;SDS011;36212;48.838;9.142;2024-01-30T12:24:08;18.38;;;13.95;;
2544;SDS011;36212;48.838;9.142;2024-01-30T12:26:43;15.43;;;13.38;;
2544;SDS011;36212;48.838;9.142;2024-01-30T12:29:15;14.75;;;13.40;;
2544;SDS011;36212;48.838;9.142;2024-01-30T12:31:48;15.65;;;13.25;;
2544;SDS011;36212;48.838;9.142;2024-01-30T12:34:24;26.00;;;23.35;;
2544;SDS011;36212;48.838;9.142;2024-01-30T12:36:57;16.92;;;14.60;;
2544;SDS011;36212;48.838;9.142;2024-01-30T12:39:30;14.13;;;12.93;;
2544;SDS011;36212;48.838;9.142;2024-01-30T12:42:04;14.38;;;13.18;;
2544;SDS011;36212;48.838;9.142;2024-01-30T12:44:37;15.10;;;13.70;;
2544;SDS011;36212;48.838;9.142;2024-01-30T12:47:11;13.95;;;12.30;;
2544;SDS011;36212;48.838;9.142;2024-01-30T12:49:46;16.33;;;13.52;;
2544;SDS011;36212;48.838;9.142;2024-01-30T12:52:19;15.57;;;14.13;;
2544;SDS011;36212;48.838;9.142;2024-01-30T12:54:53;14.23;;;12.93;;
2544;SDS011;36212;48.838;9.142;2024-01-30T12:57:26;15.05;;;13.52;;
2544;SDS011;36212;48.838;9.142;2024-01-30T12:59:58;13.90;;;12.00;;
2544;SDS011;36212;48.838;9.142;2024-01-30T13:02:31;14.85;;;11.82;;
2544;SDS011;36212;48.838;9.142;2024-01-30T13:05:08;12.65;;;11.35;;
2544;SDS011;36212;48.838;9.142;2024-01-30T13:07:41;13.00;;;11.57;;
2544;SDS011;36212;48.838;9.142;2024-01-30T13:10:14;11.70;;;10.68;;
2544;SDS011;36212;48.838;9.142;2024-01-30T13:12:46;12.90;;;11.63;;
2544;SDS011;36212;48.838;9.142;2024-01-30T13:15:19;19.50;;;12.30;;
2544;SDS011;36212;48.838;9.142;2024-01-30T13:17:52;13.32;;;11.95;;
2544;SDS011;36212;48.838;9.142;2024-01-30T13:20:26;17.05;;;12.15;;
2544;SDS011;36212;48.838;9.142;2024-01-30T13:22:58;12.63;;;11.38;;
2544;SDS011;36212;48.838;9.142;2024-01-30T13:25:31;11.73;;;10.60;;
2544;SDS011;36212;48.838;9.142;2024-01-30T13:28:05;14.52;;;11.48;;
2544;SDS011;36212;48.838;9.142;2024-01-30T13:30:38;12.65;;;11.57;;
2544;SDS011;36212;48.838;9.142;2024-01-30T13:33:11;11.32;;;10.32;;
2544;SDS011;36212;48.838;9.142;2024-01-30T13:35:45;12.50;;;10.98;;
2544;SDS011;36212;48.838;9.142;2024-01-30T13:38:18;15.32;;;11.15;;
2544;SDS011;36212;48.838;9.142;2024-01-30T13:40:50;11.98;;;10.52;;
2544;SDS011;36212;48.838;9.142;2024-01-30T13:43:23;12.50;;;10.73;;
2544;SDS011;36212;48.838;9.142;2024-01-30T13:45:56;11.88;;;10.25;;
2544;SDS011;36212;48.838;9.142;2024-01-30T13:48:29;11.25;;;10.32;;
2544;SDS011;36212;48.838;9.142;2024-01-30T13:51:01;10.88;;;9.98;;
2544;SDS011;36212;48.838;9.142;2024-01-30T13:53:35;15.23;;;11.25;;
2544;SDS011;36212;48.838;9.142;2024-01-30T13:56:10;11.23;;;10.23;;
2544;SDS011;36212;48.838;9.142;2024-01-30T13:58:43;11.18;;;10.05;;
2544;SDS011;36212;48.838;9.142;2024-01-30T14:01:21;12.50;;;11.27;;
2544;SDS011;36212;48.838;9.142;2024-01-30T14:04:01;12.00;;;10.88;;
2544;SDS011;36212;48.838;9.142;2024-01-30T14:06:45;15.05;;;12.75;;
2544;SDS011;36212;48.838;9.142;2024-01-30T14:09:33;13.02;;;11.80;;
2544;SDS011;36212;48.838;9.142;2024-01-30T14:12:06;13.63;;;12.20;;
2544;SDS011;36212;48.838;9.142;2024-01-30T14:14:48;16.45;;;12.13;;
2544;SDS011;36212;48.838;9.142;2024-01-30T14:17:25;12.75;;;11.57;;
2544;SDS011;36212;48.838;9.142;2024-01-30T14:20:04;14.93;;;13.15;;
2544;SDS011;36212;48.838;9.142;2024-01-30T14:22:37;14.40;;;12.80;;
2544;SDS011;36212;48.838;9.142;2024-01-30T14:25:10;13.68;;;12.43;;
2544;SDS011;36212;48.838;9.142;2024-01-30T14:27:44;12.65;;;11.35;;
2544;SDS011;36212;48.838;9.142;2024-01-30T14:30:17;12.77;;;11.55;;
2544;SDS011;36212;48.838;9.142;2024-01-30T14:32:52;12.77;;;11.55;;
2544;SDS011;36212;48.838;9.142;2024-01-30T14:35:26;12.52;;;11.32;;
2544;SDS011;36212;48.838;9.142;2024-01-30T14:37:59;14.88;;;12.23;;
2544;SDS011;36212;48.838;9.142;2024-01-30T14:40:35;13.48;;;12.05;;
2544;SDS011;36212;48.838;9.142;2024-01-30T14:43:09;12.40;;;11.40;;
2544;SDS011;36212;48.838;9.142;2024-01-30T14:45:42;13.25;;;12.05;;
2544;SDS011;36212;48.838;9.142;2024-01-30T14:48:19;11.75;;;10.55;;
2544;SDS011;36212;48.838;9.142;2024-01-30T14:50:52;11.30;;;10.20;;
2544;SDS011;36212;48.838;9.142;2024-01-30T14:53:25;10.75;;;9.80;;
2544;SDS011;36212;48.838;9.142;2024-01-30T14:55:57;10.57;;;9.60;;
2544;SDS011;36212;48.838;9.142;2024-01-30T14:58:31;11.82;;;10.48;;
2544;SDS011;36212;48.838;9.142;2024-01-30T15:01:04;11.63;;;10.63;;
2544;SDS011;36212;48.838;9.142;2024-01-30T15:03:37;12.32;;;11.27;;
2544;SDS011;36212;48.838;9.142;2024-01-30T15:06:12;13.50;;;12.15;;
2544;SDS011;36212;48.838;9.142;2024-01-30T15:08:45;12.70;;;11.35;;
2544;SDS011;36212;48.838;9.142;2024-01-30T15:11:18;18.05;;;15.18;;
2544;SDS011;36212;48.838;9.142;2024-01-30T15:13:51;16.55;;;14.95;;